sensor_id;sensor_type;location;lat;lon;timestamp;temperature;humidity
40622;DHT22;26324;52.040;11.528;2023-08-21T00:01:58;23.40;74.70
40622;DHT22;26324;52.040;11.528;2023-08-21T00:04:25;23.40;74.40
40622;DHT22;26324;52.040;11.528;2023-08-21T00:06:52;23.40;74.30
40622;DHT22;26324;52.040;11.528;2023-08-21T00:09:20;23.40;74.60
40622;DHT22;26324;52.040;11.528;2023-08-21T00:11:47;23.40;74.00
40622;DHT22;26324;52.040;11.528;2023-08-21T00:14:15;23.40;74.20
40622;DHT22;26324;52.040;11.528;2023-08-21T00:16:42;23.30;74.00
40622;DHT22;26324;52.040;11.528;2023-08-21T00:19:09;23.30;74.60
40622;DHT22;26324;52.040;11.528;2023-08-21T00:21:37;23.20;74.20
40622;DHT22;26324;52.040;11.528;2023-08-21T00:24:04;23.20;74.30
40622;DHT22;26324;52.040;11.528;2023-08-21T00:26:31;23.20;74.50
40622;DHT22;26324;52.040;11.528;2023-08-21T00:28:59;23.10;74.80
40622;DHT22;26324;52.040;11.528;2023-08-21T00:31:26;23.00;74.90
40622;DHT22;26324;52.040;11.528;2023-08-21T00:33:54;22.80;75.40
40622;DHT22;26324;52.040;11.528;2023-08-21T00:36:21;22.90;75.30
40622;DHT22;26324;52.040;11.528;2023-08-21T00:38:49;22.70;75.40
40622;DHT22;26324;52.040;11.528;2023-08-21T00:41:16;22.50;76.10
40622;DHT22;26324;52.040;11.528;2023-08-21T00:43:45;22.40;76.70
40622;DHT22;26324;52.040;11.528;2023-08-21T00:46:13;22.20;77.70
40622;DHT22;26324;52.040;11.528;2023-08-21T00:48:41;22.00;78.60
40622;DHT22;26324;52.040;11.528;2023-08-21T00:51:10;21.90;79.30
40622;DHT22;26324;52.040;11.528;2023-08-21T00:53:38;21.90;79.40
40622;DHT22;26324;52.040;11.528;2023-08-21T00:56:07;21.90;79.50
40622;DHT22;26324;52.040;11.528;2023-08-21T00:58:35;21.90;79.60
40622;DHT22;26324;52.040;11.528;2023-08-21T01:01:04;21.80;79.80
40622;DHT22;26324;52.040;11.528;2023-08-21T01:03:32;21.80;80.20
40622;DHT22;26324;52.040;11.528;2023-08-21T01:05:59;21.80;80.10
40622;DHT22;26324;52.040;11.528;2023-08-21T01:08:40;21.60;80.40
40622;DHT22;26324;52.040;11.528;2023-08-21T01:11:17;21.60;80.80
40622;DHT22;26324;52.040;11.528;2023-08-21T01:14:11;21.60;80.80
40622;DHT22;26324;52.040;11.528;2023-08-21T01:16:41;21.60;81.20
40622;DHT22;26324;52.040;11.528;2023-08-21T01:19:19;21.50;81.50
40622;DHT22;26324;52.040;11.528;2023-08-21T01:21:50;21.60;80.90
40622;DHT22;26324;52.040;11.528;2023-08-21T01:24:19;21.60;80.90
40622;DHT22;26324;52.040;11.528;2023-08-21T01:26:47;21.70;80.40
40622;DHT22;26324;52.040;11.528;2023-08-21T01:29:14;21.70;80.40
40622;DHT22;26324;52.040;11.528;2023-08-21T01:31:46;21.90;80.00
40622;DHT22;26324;52.040;11.528;2023-08-21T01:34:15;21.90;79.50
40622;DHT22;26324;52.040;11.528;2023-08-21T01:36:44;22.00;79.40
40622;DHT22;26324;52.040;11.528;2023-08-21T01:39:13;22.10;79.00
40622;DHT22;26324;52.040;11.528;2023-08-21T01:41:41;22.20;78.60
40622;DHT22;26324;52.040;11.528;2023-08-21T01:44:09;22.30;77.80
40622;DHT22;26324;52.040;11.528;2023-08-21T01:46:36;22.10;77.70
40622;DHT22;26324;52.040;11.528;2023-08-21T01:49:03;22.10;77.00
40622;DHT22;26324;52.040;11.528;2023-08-21T01:51:31;22.10;77.30
40622;DHT22;26324;52.040;11.528;2023-08-21T01:53:58;22.20;77.10
40622;DHT22;26324;52.040;11.528;2023-08-21T01:56:25;22.30;76.80
40622;DHT22;26324;52.040;11.528;2023-08-21T01:58:53;22.40;76.60
40622;DHT22;26324;52.040;11.528;2023-08-21T02:01:20;22.40;77.00
40622;DHT22;26324;52.040;11.528;2023-08-21T02:03:49;22.40;77.30
40622;DHT22;26324;52.040;11.528;2023-08-21T02:06:16;22.40;77.40
40622;DHT22;26324;52.040;11.528;2023-08-21T02:08:44;22.40;76.90
40622;DHT22;26324;52.040;11.528;2023-08-21T02:11:12;22.40;76.40
40622;DHT22;26324;52.040;11.528;2023-08-21T02:13:39;22.40;76.70
40622;DHT22;26324;52.040;11.528;2023-08-21T02:16:06;22.40;77.00
40622;DHT22;26324;52.040;11.528;2023-08-21T02:18:35;22.40;77.00
40622;DHT22;26324;52.040;11.528;2023-08-21T02:21:02;22.40;76.80
40622;DHT22;26324;52.040;11.528;2023-08-21T02:23:30;22.50;76.40
40622;DHT22;26324;52.040;11.528;2023-08-21T02:25:57;22.40;76.70
40622;DHT22;26324;52.040;11.528;2023-08-21T02:28:25;22.40;76.10
40622;DHT22;26324;52.040;11.528;2023-08-21T02:30:52;22.50;75.80
40622;DHT22;26324;52.040;11.528;2023-08-21T02:33:20;22.50;75.20
40622;DHT22;26324;52.040;11.528;2023-08-21T02:35:47;22.50;75.20
40622;DHT22;26324;52.040;11.528;2023-08-21T02:38:14;22.50;75.50
40622;DHT22;26324;52.040;11.528;2023-08-21T02:40:42;22.40;75.50
40622;DHT22;26324;52.040;11.528;2023-08-21T02:43:09;22.30;75.50
40622;DHT22;26324;52.040;11.528;2023-08-21T02:45:37;22.30;75.90
40622;DHT22;26324;52.040;11.528;2023-08-21T02:48:04;22.20;75.60
40622;DHT22;26324;52.040;11.528;2023-08-21T02:50:33;22.10;75.90
40622;DHT22;26324;52.040;11.528;2023-08-21T02:53:01;22.00;76.20
40622;DHT22;26324;52.040;11.528;2023-08-21T02:55:28;21.90;76.40
40622;DHT22;26324;52.040;11.528;2023-08-21T02:57:56;21.80;76.40
40622;DHT22;26324;52.040;11.528;2023-08-21T03:00:23;21.70;76.80
40622;DHT22;26324;52.040;11.528;2023-08-21T03:02:51;21.50;77.20
40622;DHT22;26324;52.040;11.528;2023-08-21T03:05:18;21.50;77.80
40622;DHT22;26324;52.040;11.528;2023-08-21T03:07:45;21.60;77.50
40622;DHT22;26324;52.040;11.528;2023-08-21T03:10:14;21.60;77.60
40622;DHT22;26324;52.040;11.528;2023-08-21T03:12:41;21.60;77.80
40622;DHT22;26324;52.040;11.528;2023-08-21T03:15:09;21.70;77.30
40622;DHT22;26324;52.040;11.528;2023-08-21T03:17:36;21.80;77.40
40622;DHT22;26324;52.040;11.528;2023-08-21T03:20:04;21.90;77.40
40622;DHT22;26324;52.040;11.528;2023-08-21T03:22:32;21.90;77.40
40622;DHT22;26324;52.040;11.528;2023-08-21T03:24:59;21.90;77.30
40622;DHT22;26324;52.040;11.528;2023-08-21T03:27:26;21.80;77.70
40622;DHT22;26324;52.040;11.528;2023-08-21T03:29:54;21.70;77.20
40622;DHT22;26324;52.040;11.528;2023-08-21T03:32:21;21.60;76.90
40622;DHT22;26324;52.040;11.528;2023-08-21T03:34:49;21.60;77.30
40622;DHT22;26324;52.040;11.528;2023-08-21T03:37:16;21.50;77.50
40622;DHT22;26324;52.040;11.528;2023-08-21T03:39:44;21.50;77.90
40622;DHT22;26324;52.040;11.528;2023-08-21T03:42:11;21.40;78.30
40622;DHT22;26324;52.040;11.528;2023-08-21T03:44:39;21.40;78.40
40622;DHT22;26324;52.040;11.528;2023-08-21T03:47:07;21.40;78.40
40622;DHT22;26324;52.040;11.528;2023-08-21T03:49:43;21.30;78.60
40622;DHT22;26324;52.040;11.528;2023-08-21T03:52:10;21.20;78.90
40622;DHT22;26324;52.040;11.528;2023-08-21T03:54:38;21.10;79.10
40622;DHT22;26324;52.040;11.528;2023-08-21T03:57:05;21.10;79.40
40622;DHT22;26324;52.040;11.528;2023-08-21T03:59:33;21.10;79.20
40622;DHT22;26324;52.040;11.528;2023-08-21T04:02:00;21.30;79.50
40622;DHT22;26324;52.040;11.528;2023-08-21T04:04:28;21.30;79.20
40622;DHT22;26324;52.040;11.528;2023-08-21T04:06:55;21.30;79.20
40622;DHT22;26324;52.040;11.528;2023-08-21T04:09:22;21.40;78.90
40622;DHT22;26324;52.040;11.528;2023-08-21T04:11:50;21.50;78.80
40622;DHT22;26324;52.040;11.528;2023-08-21T04:14:19;21.50;78.50
40622;DHT22;26324;52.040;11.528;2023-08-21T04:16:47;21.30;78.90
40622;DHT22;26324;52.040;11.528;2023-08-21T04:19:14;21.30;78.80
40622;DHT22;26324;52.040;11.528;2023-08-21T04:21:42;21.30;79.20
40622;DHT22;26324;52.040;11.528;2023-08-21T04:24:09;21.20;79.30
40622;DHT22;26324;52.040;11.528;2023-08-21T04:26:37;21.20;79.40
40622;DHT22;26324;52.040;11.528;2023-08-21T04:29:04;21.10;79.60
40622;DHT22;26324;52.040;11.528;2023-08-21T04:31:32;21.10;79.60
40622;DHT22;26324;52.040;11.528;2023-08-21T04:34:00;21.00;79.60
40622;DHT22;26324;52.040;11.528;2023-08-21T04:36:28;21.10;79.60
40622;DHT22;26324;52.040;11.528;2023-08-21T04:38:56;21.10;79.60
40622;DHT22;26324;52.040;11.528;2023-08-21T04:41:23;21.10;79.80
40622;DHT22;26324;52.040;11.528;2023-08-21T04:43:50;21.10;79.40
40622;DHT22;26324;52.040;11.528;2023-08-21T04:46:18;21.10;79.70
40622;DHT22;26324;52.040;11.528;2023-08-21T04:48:47;21.10;80.20
40622;DHT22;26324;52.040;11.528;2023-08-21T04:51:14;21.10;80.50
40622;DHT22;26324;52.040;11.528;2023-08-21T04:53:42;21.20;80.50
40622;DHT22;26324;52.040;11.528;2023-08-21T04:56:14;21.20;80.70
40622;DHT22;26324;52.040;11.528;2023-08-21T04:58:43;21.20;80.60
40622;DHT22;26324;52.040;11.528;2023-08-21T05:01:10;21.10;80.90
40622;DHT22;26324;52.040;11.528;2023-08-21T05:03:43;21.10;81.30
40622;DHT22;26324;52.040;11.528;2023-08-21T05:06:11;20.90;82.10
40622;DHT22;26324;52.040;11.528;2023-08-21T05:08:38;20.80;82.70
40622;DHT22;26324;52.040;11.528;2023-08-21T05:11:08;20.70;83.10
40622;DHT22;26324;52.040;11.528;2023-08-21T05:13:37;20.80;83.10
40622;DHT22;26324;52.040;11.528;2023-08-21T05:16:07;20.70;83.20
40622;DHT22;26324;52.040;11.528;2023-08-21T05:18:37;20.60;83.40
40622;DHT22;26324;52.040;11.528;2023-08-21T05:21:04;20.60;83.70
40622;DHT22;26324;52.040;11.528;2023-08-21T05:23:32;20.60;83.50
40622;DHT22;26324;52.040;11.528;2023-08-21T05:26:03;20.70;83.40
40622;DHT22;26324;52.040;11.528;2023-08-21T05:28:31;20.80;83.10
40622;DHT22;26324;52.040;11.528;2023-08-21T05:30:59;20.80;83.10
40622;DHT22;26324;52.040;11.528;2023-08-21T05:33:31;20.90;83.20
40622;DHT22;26324;52.040;11.528;2023-08-21T05:35:59;21.10;82.50
40622;DHT22;26324;52.040;11.528;2023-08-21T05:38:27;21.10;82.60
40622;DHT22;26324;52.040;11.528;2023-08-21T05:40:55;21.10;82.00
40622;DHT22;26324;52.040;11.528;2023-08-21T05:43:23;21.00;82.40
40622;DHT22;26324;52.040;11.528;2023-08-21T05:45:50;20.90;82.40
40622;DHT22;26324;52.040;11.528;2023-08-21T05:48:18;20.80;82.80
40622;DHT22;26324;52.040;11.528;2023-08-21T05:50:53;20.90;82.60
40622;DHT22;26324;52.040;11.528;2023-08-21T05:53:21;21.10;82.30
40622;DHT22;26324;52.040;11.528;2023-08-21T05:55:48;21.20;81.70
40622;DHT22;26324;52.040;11.528;2023-08-21T05:58:15;21.40;81.20
40622;DHT22;26324;52.040;11.528;2023-08-21T06:00:44;21.50;81.00
40622;DHT22;26324;52.040;11.528;2023-08-21T06:03:12;21.50;80.50
40622;DHT22;26324;52.040;11.528;2023-08-21T06:06:02;21.60;80.10
40622;DHT22;26324;52.040;11.528;2023-08-21T06:08:30;21.60;80.00
40622;DHT22;26324;52.040;11.528;2023-08-21T06:10:58;21.60;80.30
40622;DHT22;26324;52.040;11.528;2023-08-21T06:13:25;21.60;80.20
40622;DHT22;26324;52.040;11.528;2023-08-21T06:15:54;21.70;80.20
40622;DHT22;26324;52.040;11.528;2023-08-21T06:18:23;21.60;79.90
40622;DHT22;26324;52.040;11.528;2023-08-21T06:20:50;21.60;79.80
40622;DHT22;26324;52.040;11.528;2023-08-21T06:23:21;21.60;79.80
40622;DHT22;26324;52.040;11.528;2023-08-21T06:25:48;21.80;79.00
40622;DHT22;26324;52.040;11.528;2023-08-21T06:28:17;21.90;78.20
40622;DHT22;26324;52.040;11.528;2023-08-21T06:30:45;22.10;77.80
40622;DHT22;26324;52.040;11.528;2023-08-21T06:33:13;22.10;77.70
40622;DHT22;26324;52.040;11.528;2023-08-21T06:35:40;22.20;77.30
40622;DHT22;26324;52.040;11.528;2023-08-21T06:38:08;22.40;76.40
40622;DHT22;26324;52.040;11.528;2023-08-21T06:40:35;22.30;76.50
40622;DHT22;26324;52.040;11.528;2023-08-21T06:43:03;22.40;76.50
40622;DHT22;26324;52.040;11.528;2023-08-21T06:45:34;22.30;76.80
40622;DHT22;26324;52.040;11.528;2023-08-21T06:48:03;22.30;77.40
40622;DHT22;26324;52.040;11.528;2023-08-21T06:50:31;22.20;77.20
40622;DHT22;26324;52.040;11.528;2023-08-21T06:52:58;22.10;76.90
40622;DHT22;26324;52.040;11.528;2023-08-21T06:55:25;22.00;77.40
40622;DHT22;26324;52.040;11.528;2023-08-21T06:57:53;22.00;75.60
40622;DHT22;26324;52.040;11.528;2023-08-21T07:00:21;22.00;76.20
40622;DHT22;26324;52.040;11.528;2023-08-21T07:02:48;22.00;76.80
40622;DHT22;26324;52.040;11.528;2023-08-21T07:05:16;22.20;77.20
40622;DHT22;26324;52.040;11.528;2023-08-21T07:07:44;22.20;76.90
40622;DHT22;26324;52.040;11.528;2023-08-21T07:10:11;22.10;76.10
40622;DHT22;26324;52.040;11.528;2023-08-21T07:12:39;22.10;76.50
40622;DHT22;26324;52.040;11.528;2023-08-21T07:15:07;22.30;74.90
40622;DHT22;26324;52.040;11.528;2023-08-21T07:17:34;22.30;74.50
40622;DHT22;26324;52.040;11.528;2023-08-21T07:20:03;22.30;75.00
40622;DHT22;26324;52.040;11.528;2023-08-21T07:22:31;22.40;75.70
40622;DHT22;26324;52.040;11.528;2023-08-21T07:24:58;22.50;77.20
40622;DHT22;26324;52.040;11.528;2023-08-21T07:27:27;22.50;77.50
40622;DHT22;26324;52.040;11.528;2023-08-21T07:29:55;22.60;75.70
40622;DHT22;26324;52.040;11.528;2023-08-21T07:32:22;22.80;75.80
40622;DHT22;26324;52.040;11.528;2023-08-21T07:34:53;23.10;73.60
40622;DHT22;26324;52.040;11.528;2023-08-21T07:37:23;23.40;72.10
40622;DHT22;26324;52.040;11.528;2023-08-21T07:39:50;23.70;71.60
40622;DHT22;26324;52.040;11.528;2023-08-21T07:42:18;24.00;69.80
40622;DHT22;26324;52.040;11.528;2023-08-21T07:44:45;24.20;69.20
40622;DHT22;26324;52.040;11.528;2023-08-21T07:47:13;24.30;67.00
40622;DHT22;26324;52.040;11.528;2023-08-21T07:49:40;24.30;66.50
40622;DHT22;26324;52.040;11.528;2023-08-21T07:52:08;24.40;66.10
40622;DHT22;26324;52.040;11.528;2023-08-21T07:54:35;24.50;65.80
40622;DHT22;26324;52.040;11.528;2023-08-21T07:57:03;24.50;64.50
40622;DHT22;26324;52.040;11.528;2023-08-21T07:59:31;24.70;64.20
40622;DHT22;26324;52.040;11.528;2023-08-21T08:01:58;24.70;64.80
40622;DHT22;26324;52.040;11.528;2023-08-21T08:04:27;24.80;63.90
40622;DHT22;26324;52.040;11.528;2023-08-21T08:06:55;24.90;63.50
40622;DHT22;26324;52.040;11.528;2023-08-21T08:09:23;25.20;63.30
40622;DHT22;26324;52.040;11.528;2023-08-21T08:11:50;25.20;64.10
40622;DHT22;26324;52.040;11.528;2023-08-21T08:14:17;25.30;62.90
40622;DHT22;26324;52.040;11.528;2023-08-21T08:16:45;25.50;60.30
40622;DHT22;26324;52.040;11.528;2023-08-21T08:19:12;25.60;61.30
40622;DHT22;26324;52.040;11.528;2023-08-21T08:21:40;25.90;61.70
40622;DHT22;26324;52.040;11.528;2023-08-21T08:24:07;26.10;61.80
40622;DHT22;26324;52.040;11.528;2023-08-21T08:26:35;26.20;59.20
40622;DHT22;26324;52.040;11.528;2023-08-21T08:29:02;26.40;58.20
40622;DHT22;26324;52.040;11.528;2023-08-21T08:31:29;26.60;59.50
40622;DHT22;26324;52.040;11.528;2023-08-21T08:33:57;26.70;55.00
40622;DHT22;26324;52.040;11.528;2023-08-21T08:36:25;26.80;54.40
40622;DHT22;26324;52.040;11.528;2023-08-21T08:38:52;26.80;52.40
40622;DHT22;26324;52.040;11.528;2023-08-21T08:41:30;27.00;51.80
40622;DHT22;26324;52.040;11.528;2023-08-21T08:44:01;27.10;51.80
40622;DHT22;26324;52.040;11.528;2023-08-21T08:46:29;27.30;51.10
40622;DHT22;26324;52.040;11.528;2023-08-21T08:48:58;27.30;49.40
40622;DHT22;26324;52.040;11.528;2023-08-21T08:51:29;27.40;48.70
40622;DHT22;26324;52.040;11.528;2023-08-21T08:53:58;27.60;50.70
40622;DHT22;26324;52.040;11.528;2023-08-21T08:56:26;27.80;52.60
40622;DHT22;26324;52.040;11.528;2023-08-21T08:58:53;27.80;50.00
40622;DHT22;26324;52.040;11.528;2023-08-21T09:01:20;27.80;51.20
40622;DHT22;26324;52.040;11.528;2023-08-21T09:03:48;28.00;50.30
40622;DHT22;26324;52.040;11.528;2023-08-21T09:06:17;28.20;51.80
40622;DHT22;26324;52.040;11.528;2023-08-21T09:08:55;28.50;48.80
40622;DHT22;26324;52.040;11.528;2023-08-21T09:11:23;28.40;47.20
40622;DHT22;26324;52.040;11.528;2023-08-21T09:13:51;28.40;46.60
40622;DHT22;26324;52.040;11.528;2023-08-21T09:16:19;28.40;46.50
40622;DHT22;26324;52.040;11.528;2023-08-21T09:18:48;28.20;48.00
40622;DHT22;26324;52.040;11.528;2023-08-21T09:21:20;28.10;50.50
40622;DHT22;26324;52.040;11.528;2023-08-21T09:23:48;28.10;49.80
40622;DHT22;26324;52.040;11.528;2023-08-21T09:26:19;28.30;50.60
40622;DHT22;26324;52.040;11.528;2023-08-21T09:28:51;28.60;45.70
40622;DHT22;26324;52.040;11.528;2023-08-21T09:31:39;28.50;43.70
40622;DHT22;26324;52.040;11.528;2023-08-21T09:34:07;28.50;45.50
40622;DHT22;26324;52.040;11.528;2023-08-21T09:36:35;28.30;45.40
40622;DHT22;26324;52.040;11.528;2023-08-21T09:39:02;28.10;44.40
40622;DHT22;26324;52.040;11.528;2023-08-21T09:41:31;27.90;45.80
40622;DHT22;26324;52.040;11.528;2023-08-21T09:43:59;27.90;47.10
40622;DHT22;26324;52.040;11.528;2023-08-21T09:46:31;28.00;48.90
40622;DHT22;26324;52.040;11.528;2023-08-21T09:48:58;28.10;46.70
40622;DHT22;26324;52.040;11.528;2023-08-21T09:51:26;28.30;48.90
40622;DHT22;26324;52.040;11.528;2023-08-21T09:53:55;28.30;47.60
40622;DHT22;26324;52.040;11.528;2023-08-21T09:56:24;28.40;45.20
40622;DHT22;26324;52.040;11.528;2023-08-21T09:58:52;28.10;46.80
40622;DHT22;26324;52.040;11.528;2023-08-21T10:01:21;27.80;48.80
40622;DHT22;26324;52.040;11.528;2023-08-21T10:03:48;27.80;47.80
40622;DHT22;26324;52.040;11.528;2023-08-21T10:06:17;28.00;48.00
40622;DHT22;26324;52.040;11.528;2023-08-21T10:08:53;28.10;48.50
40622;DHT22;26324;52.040;11.528;2023-08-21T10:11:22;28.20;46.00
40622;DHT22;26324;52.040;11.528;2023-08-21T10:13:50;28.30;45.70
40622;DHT22;26324;52.040;11.528;2023-08-21T10:16:19;28.30;46.40
40622;DHT22;26324;52.040;11.528;2023-08-21T10:18:49;28.50;45.80
40622;DHT22;26324;52.040;11.528;2023-08-21T10:21:21;28.70;48.00
40622;DHT22;26324;52.040;11.528;2023-08-21T10:23:50;28.90;44.50
40622;DHT22;26324;52.040;11.528;2023-08-21T10:26:19;28.90;45.30
40622;DHT22;26324;52.040;11.528;2023-08-21T10:31:34;29.00;42.60
40622;DHT22;26324;52.040;11.528;2023-08-21T10:34:04;28.50;43.80
40622;DHT22;26324;52.040;11.528;2023-08-21T10:39:24;28.90;46.80
40622;DHT22;26324;52.040;11.528;2023-08-21T10:41:56;29.10;49.90
40622;DHT22;26324;52.040;11.528;2023-08-21T10:49:56;29.60;43.80
40622;DHT22;26324;52.040;11.528;2023-08-21T10:52:26;29.50;47.20
40622;DHT22;26324;52.040;11.528;2023-08-21T10:54:55;29.50;45.20
40622;DHT22;26324;52.040;11.528;2023-08-21T10:57:24;29.80;43.20
40622;DHT22;26324;52.040;11.528;2023-08-21T11:02:19;30.20;43.80
40622;DHT22;26324;52.040;11.528;2023-08-21T11:04:46;30.50;43.30
40622;DHT22;26324;52.040;11.528;2023-08-21T11:07:14;30.40;43.80
40622;DHT22;26324;52.040;11.528;2023-08-21T11:09:41;30.40;44.90
40622;DHT22;26324;52.040;11.528;2023-08-21T11:12:10;30.60;44.40
40622;DHT22;26324;52.040;11.528;2023-08-21T11:14:38;30.70;46.90
40622;DHT22;26324;52.040;11.528;2023-08-21T11:17:07;30.80;43.50
40622;DHT22;26324;52.040;11.528;2023-08-21T11:19:36;31.00;42.90
40622;DHT22;26324;52.040;11.528;2023-08-21T11:22:04;31.10;44.00
40622;DHT22;26324;52.040;11.528;2023-08-21T11:24:43;31.30;45.00
40622;DHT22;26324;52.040;11.528;2023-08-21T11:27:12;31.20;46.50
40622;DHT22;26324;52.040;11.528;2023-08-21T11:29:46;31.40;47.00
40622;DHT22;26324;52.040;11.528;2023-08-21T11:32:21;31.60;44.10
40622;DHT22;26324;52.040;11.528;2023-08-21T11:34:50;31.70;43.50
40622;DHT22;26324;52.040;11.528;2023-08-21T11:37:19;31.70;44.00
40622;DHT22;26324;52.040;11.528;2023-08-21T11:39:52;31.60;40.80
40622;DHT22;26324;52.040;11.528;2023-08-21T11:42:22;31.60;45.20
40622;DHT22;26324;52.040;11.528;2023-08-21T11:44:51;31.80;42.10
40622;DHT22;26324;52.040;11.528;2023-08-21T11:47:21;32.10;41.50
40622;DHT22;26324;52.040;11.528;2023-08-21T11:49:49;32.00;39.20
40622;DHT22;26324;52.040;11.528;2023-08-21T11:52:21;31.90;40.20
40622;DHT22;26324;52.040;11.528;2023-08-21T11:54:51;31.60;40.80
40622;DHT22;26324;52.040;11.528;2023-08-21T11:57:19;31.50;39.40
40622;DHT22;26324;52.040;11.528;2023-08-21T11:59:54;31.30;40.80
40622;DHT22;26324;52.040;11.528;2023-08-21T12:02:26;31.40;43.40
40622;DHT22;26324;52.040;11.528;2023-08-21T12:05:05;31.50;42.30
40622;DHT22;26324;52.040;11.528;2023-08-21T12:07:33;31.80;44.40
40622;DHT22;26324;52.040;11.528;2023-08-21T12:10:01;32.20;42.80
40622;DHT22;26324;52.040;11.528;2023-08-21T12:12:29;32.20;41.70
40622;DHT22;26324;52.040;11.528;2023-08-21T12:14:56;32.20;41.30
40622;DHT22;26324;52.040;11.528;2023-08-21T12:17:24;32.00;40.80
40622;DHT22;26324;52.040;11.528;2023-08-21T12:19:51;31.80;40.00
40622;DHT22;26324;52.040;11.528;2023-08-21T12:22:19;31.70;40.20
40622;DHT22;26324;52.040;11.528;2023-08-21T12:24:47;31.50;40.40
40622;DHT22;26324;52.040;11.528;2023-08-21T12:27:14;31.50;45.80
40622;DHT22;26324;52.040;11.528;2023-08-21T12:29:41;31.80;43.70
40622;DHT22;26324;52.040;11.528;2023-08-21T12:32:09;32.10;39.40
40622;DHT22;26324;52.040;11.528;2023-08-21T12:34:36;32.20;41.80
40622;DHT22;26324;52.040;11.528;2023-08-21T12:37:03;32.20;39.80
40622;DHT22;26324;52.040;11.528;2023-08-21T12:39:31;31.80;38.50
40622;DHT22;26324;52.040;11.528;2023-08-21T12:41:58;31.50;40.80
40622;DHT22;26324;52.040;11.528;2023-08-21T12:44:26;31.30;41.30
40622;DHT22;26324;52.040;11.528;2023-08-21T12:46:54;31.10;41.70
40622;DHT22;26324;52.040;11.528;2023-08-21T12:49:21;31.10;43.40
40622;DHT22;26324;52.040;11.528;2023-08-21T12:51:49;31.10;42.20
40622;DHT22;26324;52.040;11.528;2023-08-21T12:54:16;31.00;44.20
40622;DHT22;26324;52.040;11.528;2023-08-21T12:56:44;31.30;43.40
40622;DHT22;26324;52.040;11.528;2023-08-21T12:59:13;31.40;42.90
40622;DHT22;26324;52.040;11.528;2023-08-21T13:01:43;31.50;45.60
40622;DHT22;26324;52.040;11.528;2023-08-21T13:04:10;31.40;42.50
40622;DHT22;26324;52.040;11.528;2023-08-21T13:06:37;31.30;44.50
40622;DHT22;26324;52.040;11.528;2023-08-21T13:09:05;31.30;43.30
40622;DHT22;26324;52.040;11.528;2023-08-21T13:11:33;31.50;43.40
40622;DHT22;26324;52.040;11.528;2023-08-21T13:14:01;32.10;41.10
40622;DHT22;26324;52.040;11.528;2023-08-21T13:16:28;32.50;38.80
40622;DHT22;26324;52.040;11.528;2023-08-21T13:18:56;32.60;40.00
40622;DHT22;26324;52.040;11.528;2023-08-21T13:21:23;33.00;37.70
40622;DHT22;26324;52.040;11.528;2023-08-21T13:23:50;33.50;38.30
40622;DHT22;26324;52.040;11.528;2023-08-21T13:26:18;34.00;38.20
40622;DHT22;26324;52.040;11.528;2023-08-21T13:28:45;34.40;36.10
40622;DHT22;26324;52.040;11.528;2023-08-21T13:31:12;35.00;36.60
40622;DHT22;26324;52.040;11.528;2023-08-21T13:33:50;35.60;34.50
40622;DHT22;26324;52.040;11.528;2023-08-21T13:36:18;36.00;33.30
40622;DHT22;26324;52.040;11.528;2023-08-21T13:38:46;35.90;35.50
40622;DHT22;26324;52.040;11.528;2023-08-21T13:41:14;36.20;37.00
40622;DHT22;26324;52.040;11.528;2023-08-21T13:43:41;36.70;33.90
40622;DHT22;26324;52.040;11.528;2023-08-21T13:46:12;37.10;34.10
40622;DHT22;26324;52.040;11.528;2023-08-21T13:48:40;37.50;32.20
40622;DHT22;26324;52.040;11.528;2023-08-21T13:51:07;37.10;32.40
40622;DHT22;26324;52.040;11.528;2023-08-21T13:53:34;36.40;33.80
40622;DHT22;26324;52.040;11.528;2023-08-21T13:56:02;35.50;33.50
40622;DHT22;26324;52.040;11.528;2023-08-21T13:58:29;34.80;36.10
40622;DHT22;26324;52.040;11.528;2023-08-21T14:00:57;34.00;36.30
40622;DHT22;26324;52.040;11.528;2023-08-21T14:03:25;33.40;39.40
40622;DHT22;26324;52.040;11.528;2023-08-21T14:05:52;32.90;39.10
40622;DHT22;26324;52.040;11.528;2023-08-21T14:08:21;32.50;42.20
40622;DHT22;26324;52.040;11.528;2023-08-21T14:10:48;32.20;41.00
40622;DHT22;26324;52.040;11.528;2023-08-21T14:13:16;32.00;40.30
40622;DHT22;26324;52.040;11.528;2023-08-21T14:15:43;31.80;41.80
40622;DHT22;26324;52.040;11.528;2023-08-21T14:18:11;32.50;42.80
40622;DHT22;26324;52.040;11.528;2023-08-21T14:20:38;33.50;38.70
40622;DHT22;26324;52.040;11.528;2023-08-21T14:23:06;34.60;39.70
40622;DHT22;26324;52.040;11.528;2023-08-21T14:25:34;36.00;36.30
40622;DHT22;26324;52.040;11.528;2023-08-21T14:28:01;37.30;33.30
40622;DHT22;26324;52.040;11.528;2023-08-21T14:30:29;38.50;32.90
40622;DHT22;26324;52.040;11.528;2023-08-21T14:32:56;39.40;30.90
40622;DHT22;26324;52.040;11.528;2023-08-21T14:35:24;40.10;29.40
40622;DHT22;26324;52.040;11.528;2023-08-21T14:37:51;40.90;28.00
40622;DHT22;26324;52.040;11.528;2023-08-21T14:40:19;41.10;26.10
40622;DHT22;26324;52.040;11.528;2023-08-21T14:42:46;41.10;26.00
40622;DHT22;26324;52.040;11.528;2023-08-21T14:45:13;41.10;27.80
40622;DHT22;26324;52.040;11.528;2023-08-21T14:47:41;41.30;27.40
40622;DHT22;26324;52.040;11.528;2023-08-21T14:50:09;41.20;26.50
40622;DHT22;26324;52.040;11.528;2023-08-21T14:52:36;40.80;27.10
40622;DHT22;26324;52.040;11.528;2023-08-21T14:55:04;40.50;28.30
40622;DHT22;26324;52.040;11.528;2023-08-21T14:57:31;40.30;28.00
40622;DHT22;26324;52.040;11.528;2023-08-21T14:59:59;39.90;28.10
40622;DHT22;26324;52.040;11.528;2023-08-21T15:02:26;39.30;30.00
40622;DHT22;26324;52.040;11.528;2023-08-21T15:04:54;39.30;29.50
40622;DHT22;26324;52.040;11.528;2023-08-21T15:07:21;39.60;28.00
40622;DHT22;26324;52.040;11.528;2023-08-21T15:09:48;40.00;28.50
40622;DHT22;26324;52.040;11.528;2023-08-21T15:12:16;40.50;28.20
40622;DHT22;26324;52.040;11.528;2023-08-21T15:14:43;41.00;27.80
40622;DHT22;26324;52.040;11.528;2023-08-21T15:17:11;41.10;25.70
40622;DHT22;26324;52.040;11.528;2023-08-21T15:19:47;41.20;26.00
40622;DHT22;26324;52.040;11.528;2023-08-21T15:22:18;41.40;26.60
40622;DHT22;26324;52.040;11.528;2023-08-21T15:24:46;41.50;26.40
40622;DHT22;26324;52.040;11.528;2023-08-21T15:27:14;41.50;25.80
40622;DHT22;26324;52.040;11.528;2023-08-21T15:29:41;41.30;25.70
40622;DHT22;26324;52.040;11.528;2023-08-21T15:32:08;41.30;25.70
40622;DHT22;26324;52.040;11.528;2023-08-21T15:34:36;41.40;26.20
40622;DHT22;26324;52.040;11.528;2023-08-21T15:37:03;41.10;25.20